sensor_id;sensor_type;location;lat;lon;timestamp;P1;durP1;ratioP1;P2;durP2;ratioP2
21243;SDS011;10780;50.942;4.028;2023-02-18T00:01:14;13.90;;;9.95;;
21243;SDS011;10780;50.942;4.028;2023-02-18T00:03:41;11.40;;;8.60;;
21243;SDS011;10780;50.942;4.028;2023-02-18T00:06:10;14.05;;;9.15;;
21243;SDS011;10780;50.942;4.028;2023-02-18T00:08:39;11.98;;;8.70;;
21243;SDS011;10780;50.942;4.028;2023-02-18T00:11:06;12.95;;;8.98;;
21243;SDS011;10780;50.942;4.028;2023-02-18T00:13:31;11.80;;;8.25;;
21243;SDS011;10780;50.942;4.028;2023-02-18T00:16:05;11.27;;;8.73;;
21243;SDS011;10780;50.942;4.028;2023-02-18T00:18:35;11.60;;;7.95;;
21243;SDS011;10780;50.942;4.028;2023-02-18T00:21:02;13.70;;;8.30;;
21243;SDS011;10780;50.942;4.028;2023-02-18T00:23:29;12.85;;;8.93;;
21243;SDS011;10780;50.942;4.028;2023-02-18T00:26:03;13.93;;;8.30;;
21243;SDS011;10780;50.942;4.028;2023-02-18T00:28:33;14.73;;;8.75;;
21243;SDS011;10780;50.942;4.028;2023-02-18T00:31:04;15.38;;;8.70;;
21243;SDS011;10780;50.942;4.028;2023-02-18T00:33:31;16.20;;;8.77;;
21243;SDS011;10780;50.942;4.028;2023-02-18T00:36:01;12.07;;;7.60;;
21243;SDS011;10780;50.942;4.028;2023-02-18T00:38:28;15.90;;;8.05;;
21243;SDS011;10780;50.942;4.028;2023-02-18T00:40:53;14.05;;;7.50;;
21243;SDS011;10780;50.942;4.028;2023-02-18T00:43:19;11.45;;;7.90;;
21243;SDS011;10780;50.942;4.028;2023-02-18T00:45:45;12.70;;;7.90;;
21243;SDS011;10780;50.942;4.028;2023-02-18T00:48:10;11.10;;;7.30;;
21243;SDS011;10780;50.942;4.028;2023-02-18T00:50:36;11.45;;;7.25;;
21243;SDS011;10780;50.942;4.028;2023-02-18T00:53:01;10.35;;;6.95;;
21243;SDS011;10780;50.942;4.028;2023-02-18T00:55:27;9.88;;;6.72;;
21243;SDS011;10780;50.942;4.028;2023-02-18T00:57:53;11.93;;;6.63;;
21243;SDS011;10780;50.942;4.028;2023-02-18T01:00:18;12.20;;;7.07;;
21243;SDS011;10780;50.942;4.028;2023-02-18T01:02:44;9.02;;;6.40;;
21243;SDS011;10780;50.942;4.028;2023-02-18T01:05:10;9.85;;;6.45;;
21243;SDS011;10780;50.942;4.028;2023-02-18T01:07:35;9.68;;;6.28;;
21243;SDS011;10780;50.942;4.028;2023-02-18T01:10:01;9.73;;;6.03;;
21243;SDS011;10780;50.942;4.028;2023-02-18T01:12:27;12.68;;;6.88;;
21243;SDS011;10780;50.942;4.028;2023-02-18T01:14:53;13.23;;;6.35;;
21243;SDS011;10780;50.942;4.028;2023-02-18T01:17:19;10.05;;;5.90;;
21243;SDS011;10780;50.942;4.028;2023-02-18T01:19:44;9.43;;;6.00;;
21243;SDS011;10780;50.942;4.028;2023-02-18T01:22:10;9.73;;;6.43;;
21243;SDS011;10780;50.942;4.028;2023-02-18T01:24:36;9.18;;;6.15;;
21243;SDS011;10780;50.942;4.028;2023-02-18T01:27:02;7.00;;;5.65;;
21243;SDS011;10780;50.942;4.028;2023-02-18T01:29:28;7.63;;;5.50;;
21243;SDS011;10780;50.942;4.028;2023-02-18T01:31:54;8.30;;;5.35;;
21243;SDS011;10780;50.942;4.028;2023-02-18T01:34:19;7.82;;;4.88;;
21243;SDS011;10780;50.942;4.028;2023-02-18T01:36:45;8.02;;;4.80;;
21243;SDS011;10780;50.942;4.028;2023-02-18T01:39:11;6.55;;;5.10;;
21243;SDS011;10780;50.942;4.028;2023-02-18T01:41:36;4.75;;;3.78;;
21243;SDS011;10780;50.942;4.028;2023-02-18T01:44:12;4.50;;;3.95;;
21243;SDS011;10780;50.942;4.028;2023-02-18T01:46:38;6.38;;;4.20;;
21243;SDS011;10780;50.942;4.028;2023-02-18T01:49:03;5.43;;;3.72;;
21243;SDS011;10780;50.942;4.028;2023-02-18T01:51:31;4.57;;;3.90;;
21243;SDS011;10780;50.942;4.028;2023-02-18T01:54:02;4.80;;;3.90;;
21243;SDS011;10780;50.942;4.028;2023-02-18T01:56:33;5.07;;;3.92;;
21243;SDS011;10780;50.942;4.028;2023-02-18T01:59:22;5.18;;;3.95;;
21243;SDS011;10780;50.942;4.028;2023-02-18T02:01:50;5.45;;;4.07;;
21243;SDS011;10780;50.942;4.028;2023-02-18T02:04:17;5.72;;;4.22;;
21243;SDS011;10780;50.942;4.028;2023-02-18T02:06:43;6.40;;;4.03;;
21243;SDS011;10780;50.942;4.028;2023-02-18T02:09:09;5.07;;;4.07;;
21243;SDS011;10780;50.942;4.028;2023-02-18T02:19:39;6.30;;;4.25;;
21243;SDS011;10780;50.942;4.028;2023-02-18T02:38:17;4.97;;;3.45;;
21243;SDS011;10780;50.942;4.028;2023-02-18T02:40:54;5.90;;;3.92;;
21243;SDS011;10780;50.942;4.028;2023-02-18T02:43:39;5.80;;;3.65;;
21243;SDS011;10780;50.942;4.028;2023-02-18T02:46:13;5.35;;;3.80;;
21243;SDS011;10780;50.942;4.028;2023-02-18T02:51:47;5.05;;;3.47;;
21243;SDS011;10780;50.942;4.028;2023-02-18T02:54:24;3.60;;;2.92;;
21243;SDS011;10780;50.942;4.028;2023-02-18T02:59:39;3.28;;;2.97;;
21243;SDS011;10780;50.942;4.028;2023-02-18T03:02:15;3.72;;;2.90;;
21243;SDS011;10780;50.942;4.028;2023-02-18T03:13:11;3.83;;;2.70;;
21243;SDS011;10780;50.942;4.028;2023-02-18T03:18:46;4.68;;;3.05;;
21243;SDS011;10780;50.942;4.028;2023-02-18T03:21:26;4.43;;;3.08;;
21243;SDS011;10780;50.942;4.028;2023-02-18T03:24:01;3.80;;;2.60;;
21243;SDS011;10780;50.942;4.028;2023-02-18T03:26:28;3.40;;;2.40;;
21243;SDS011;10780;50.942;4.028;2023-02-18T03:28:57;4.18;;;2.50;;
21243;SDS011;10780;50.942;4.028;2023-02-18T03:31:27;3.60;;;2.63;;
21243;SDS011;10780;50.942;4.028;2023-02-18T03:33:56;3.60;;;2.25;;
21243;SDS011;10780;50.942;4.028;2023-02-18T03:36:25;3.20;;;2.22;;
21243;SDS011;10780;50.942;4.028;2023-02-18T03:38:53;2.60;;;2.00;;
21243;SDS011;10780;50.942;4.028;2023-02-18T03:41:28;3.55;;;2.17;;
21243;SDS011;10780;50.942;4.028;2023-02-18T03:43:57;2.95;;;2.22;;
21243;SDS011;10780;50.942;4.028;2023-02-18T03:46:25;3.03;;;2.25;;
21243;SDS011;10780;50.942;4.028;2023-02-18T03:48:52;3.17;;;1.98;;
21243;SDS011;10780;50.942;4.028;2023-02-18T03:51:18;2.88;;;2.13;;
21243;SDS011;10780;50.942;4.028;2023-02-18T03:53:44;2.28;;;1.98;;
21243;SDS011;10780;50.942;4.028;2023-02-18T03:56:10;3.20;;;2.08;;
21243;SDS011;10780;50.942;4.028;2023-02-18T03:58:36;2.25;;;1.80;;
21243;SDS011;10780;50.942;4.028;2023-02-18T04:01:02;2.60;;;2.10;;
21243;SDS011;10780;50.942;4.028;2023-02-18T04:03:28;2.13;;;1.83;;
21243;SDS011;10780;50.942;4.028;2023-02-18T04:05:53;3.72;;;2.00;;
21243;SDS011;10780;50.942;4.028;2023-02-18T04:08:19;2.08;;;1.67;;
21243;SDS011;10780;50.942;4.028;2023-02-18T04:10:45;3.03;;;1.90;;
21243;SDS011;10780;50.942;4.028;2023-02-18T04:13:10;2.17;;;1.98;;
21243;SDS011;10780;50.942;4.028;2023-02-18T04:15:36;2.10;;;1.90;;
21243;SDS011;10780;50.942;4.028;2023-02-18T04:18:02;2.33;;;2.13;;
21243;SDS011;10780;50.942;4.028;2023-02-18T04:20:28;2.53;;;2.17;;
21243;SDS011;10780;50.942;4.028;2023-02-18T04:22:54;2.58;;;2.00;;
21243;SDS011;10780;50.942;4.028;2023-02-18T04:25:20;2.30;;;1.90;;
21243;SDS011;10780;50.942;4.028;2023-02-18T04:27:45;2.35;;;1.95;;
21243;SDS011;10780;50.942;4.028;2023-02-18T04:30:11;2.38;;;1.90;;
21243;SDS011;10780;50.942;4.028;2023-02-18T04:32:37;2.33;;;1.85;;
21243;SDS011;10780;50.942;4.028;2023-02-18T04:35:03;3.42;;;1.83;;
21243;SDS011;10780;50.942;4.028;2023-02-18T04:37:29;3.03;;;1.77;;
21243;SDS011;10780;50.942;4.028;2023-02-18T04:39:55;2.30;;;1.98;;
21243;SDS011;10780;50.942;4.028;2023-02-18T04:42:21;2.22;;;1.98;;
21243;SDS011;10780;50.942;4.028;2023-02-18T04:44:47;1.48;;;1.38;;
21243;SDS011;10780;50.942;4.028;2023-02-18T04:47:12;2.00;;;1.70;;
21243;SDS011;10780;50.942;4.028;2023-02-18T04:49:38;2.50;;;1.98;;
21243;SDS011;10780;50.942;4.028;2023-02-18T04:52:04;2.30;;;1.80;;
21243;SDS011;10780;50.942;4.028;2023-02-18T04:54:30;2.05;;;1.80;;
21243;SDS011;10780;50.942;4.028;2023-02-18T04:56:56;2.40;;;1.90;;
21243;SDS011;10780;50.942;4.028;2023-02-18T04:59:21;3.75;;;2.20;;
21243;SDS011;10780;50.942;4.028;2023-02-18T05:01:47;3.65;;;2.15;;
21243;SDS011;10780;50.942;4.028;2023-02-18T05:04:12;3.67;;;2.30;;
21243;SDS011;10780;50.942;4.028;2023-02-18T05:06:38;2.80;;;2.50;;
21243;SDS011;10780;50.942;4.028;2023-02-18T05:09:04;3.05;;;2.28;;
21243;SDS011;10780;50.942;4.028;2023-02-18T05:11:30;3.60;;;2.45;;
21243;SDS011;10780;50.942;4.028;2023-02-18T05:13:56;2.70;;;2.30;;
21243;SDS011;10780;50.942;4.028;2023-02-18T05:16:21;3.95;;;2.75;;
21243;SDS011;10780;50.942;4.028;2023-02-18T05:18:47;4.75;;;2.47;;
21243;SDS011;10780;50.942;4.028;2023-02-18T05:21:13;5.97;;;2.95;;
21243;SDS011;10780;50.942;4.028;2023-02-18T05:23:38;6.15;;;2.83;;
21243;SDS011;10780;50.942;4.028;2023-02-18T05:26:04;4.45;;;2.80;;
21243;SDS011;10780;50.942;4.028;2023-02-18T05:28:30;7.35;;;2.53;;
21243;SDS011;10780;50.942;4.028;2023-02-18T05:30:55;7.93;;;2.80;;
21243;SDS011;10780;50.942;4.028;2023-02-18T05:33:22;5.45;;;1.83;;
21243;SDS011;10780;50.942;4.028;2023-02-18T05:35:48;3.90;;;1.73;;
21243;SDS011;10780;50.942;4.028;2023-02-18T05:38:13;4.22;;;1.75;;
21243;SDS011;10780;50.942;4.028;2023-02-18T05:40:39;10.65;;;2.42;;
21243;SDS011;10780;50.942;4.028;2023-02-18T05:43:05;7.90;;;2.58;;
21243;SDS011;10780;50.942;4.028;2023-02-18T05:45:31;8.57;;;2.22;;
21243;SDS011;10780;50.942;4.028;2023-02-18T05:47:56;7.90;;;2.08;;
21243;SDS011;10780;50.942;4.028;2023-02-18T05:50:22;11.32;;;2.25;;
21243;SDS011;10780;50.942;4.028;2023-02-18T05:52:47;5.07;;;1.98;;
21243;SDS011;10780;50.942;4.028;2023-02-18T05:55:13;6.25;;;2.10;;
21243;SDS011;10780;50.942;4.028;2023-02-18T05:57:39;7.82;;;2.40;;
21243;SDS011;10780;50.942;4.028;2023-02-18T06:00:05;13.05;;;2.28;;
21243;SDS011;10780;50.942;4.028;2023-02-18T06:02:33;7.72;;;2.10;;
21243;SDS011;10780;50.942;4.028;2023-02-18T06:04:59;7.07;;;2.30;;
21243;SDS011;10780;50.942;4.028;2023-02-18T06:07:25;9.80;;;2.70;;
21243;SDS011;10780;50.942;4.028;2023-02-18T06:09:50;9.40;;;2.45;;
21243;SDS011;10780;50.942;4.028;2023-02-18T06:12:16;8.35;;;2.40;;
21243;SDS011;10780;50.942;4.028;2023-02-18T06:14:41;8.88;;;2.45;;
21243;SDS011;10780;50.942;4.028;2023-02-18T06:17:10;14.48;;;2.58;;
21243;SDS011;10780;50.942;4.028;2023-02-18T06:19:37;9.73;;;2.50;;
21243;SDS011;10780;50.942;4.028;2023-02-18T06:22:02;12.45;;;3.42;;
21243;SDS011;10780;50.942;4.028;2023-02-18T06:24:28;10.60;;;2.75;;
21243;SDS011;10780;50.942;4.028;2023-02-18T06:26:54;13.57;;;3.15;;
21243;SDS011;10780;50.942;4.028;2023-02-18T06:29:20;14.85;;;3.17;;
21243;SDS011;10780;50.942;4.028;2023-02-18T06:31:46;8.73;;;2.60;;
21243;SDS011;10780;50.942;4.028;2023-02-18T06:34:11;14.18;;;3.20;;
21243;SDS011;10780;50.942;4.028;2023-02-18T06:36:37;12.27;;;2.72;;
21243;SDS011;10780;50.942;4.028;2023-02-18T06:39:03;8.68;;;2.53;;
21243;SDS011;10780;50.942;4.028;2023-02-18T06:41:30;11.50;;;2.83;;
21243;SDS011;10780;50.942;4.028;2023-02-18T06:43:55;8.27;;;2.60;;
21243;SDS011;10780;50.942;4.028;2023-02-18T06:46:21;12.13;;;2.95;;
21243;SDS011;10780;50.942;4.028;2023-02-18T06:48:47;8.07;;;2.80;;
21243;SDS011;10780;50.942;4.028;2023-02-18T06:51:13;11.75;;;2.70;;
21243;SDS011;10780;50.942;4.028;2023-02-18T06:53:40;9.57;;;2.60;;
21243;SDS011;10780;50.942;4.028;2023-02-18T06:56:06;17.48;;;2.70;;
21243;SDS011;10780;50.942;4.028;2023-02-18T06:58:32;7.22;;;2.38;;
21243;SDS011;10780;50.942;4.028;2023-02-18T07:00:57;5.28;;;2.50;;
21243;SDS011;10780;50.942;4.028;2023-02-18T07:03:23;9.80;;;2.30;;
21243;SDS011;10780;50.942;4.028;2023-02-18T07:05:49;8.95;;;2.45;;
21243;SDS011;10780;50.942;4.028;2023-02-18T07:08:14;6.93;;;2.22;;
21243;SDS011;10780;50.942;4.028;2023-02-18T07:10:40;8.75;;;2.58;;
21243;SDS011;10780;50.942;4.028;2023-02-18T07:13:06;12.13;;;2.60;;
21243;SDS011;10780;50.942;4.028;2023-02-18T07:15:32;9.05;;;2.70;;
21243;SDS011;10780;50.942;4.028;2023-02-18T07:17:57;9.55;;;3.10;;
21243;SDS011;10780;50.942;4.028;2023-02-18T07:20:23;9.32;;;2.00;;
21243;SDS011;10780;50.942;4.028;2023-02-18T07:22:50;13.13;;;4.97;;
21243;SDS011;10780;50.942;4.028;2023-02-18T07:25:16;9.43;;;2.47;;
21243;SDS011;10780;50.942;4.028;2023-02-18T07:27:41;5.43;;;2.72;;
21243;SDS011;10780;50.942;4.028;2023-02-18T07:30:07;10.48;;;2.22;;
21243;SDS011;10780;50.942;4.028;2023-02-18T07:32:33;9.82;;;2.47;;
21243;SDS011;10780;50.942;4.028;2023-02-18T07:34:59;9.00;;;2.50;;
21243;SDS011;10780;50.942;4.028;2023-02-18T07:37:25;13.23;;;2.08;;
21243;SDS011;10780;50.942;4.028;2023-02-18T07:39:50;8.35;;;2.10;;
21243;SDS011;10780;50.942;4.028;2023-02-18T07:42:16;9.32;;;2.65;;
21243;SDS011;10780;50.942;4.028;2023-02-18T07:44:42;10.98;;;2.63;;
21243;SDS011;10780;50.942;4.028;2023-02-18T07:47:08;8.18;;;2.63;;
21243;SDS011;10780;50.942;4.028;2023-02-18T07:49:37;12.30;;;2.60;;
21243;SDS011;10780;50.942;4.028;2023-02-18T07:52:03;9.63;;;2.30;;
21243;SDS011;10780;50.942;4.028;2023-02-18T07:54:29;11.52;;;2.67;;
21243;SDS011;10780;50.942;4.028;2023-02-18T07:56:54;10.15;;;2.60;;
21243;SDS011;10780;50.942;4.028;2023-02-18T07:59:20;12.93;;;2.97;;
21243;SDS011;10780;50.942;4.028;2023-02-18T08:01:45;13.27;;;2.78;;
21243;SDS011;10780;50.942;4.028;2023-02-18T08:04:11;9.98;;;2.67;;
21243;SDS011;10780;50.942;4.028;2023-02-18T08:06:41;10.07;;;2.40;;
21243;SDS011;10780;50.942;4.028;2023-02-18T08:09:10;11.82;;;2.88;;
21243;SDS011;10780;50.942;4.028;2023-02-18T08:11:35;13.93;;;2.55;;
21243;SDS011;10780;50.942;4.028;2023-02-18T08:14:01;13.20;;;2.70;;
21243;SDS011;10780;50.942;4.028;2023-02-18T08:16:27;12.85;;;2.70;;
21243;SDS011;10780;50.942;4.028;2023-02-18T08:18:53;12.40;;;3.22;;
21243;SDS011;10780;50.942;4.028;2023-02-18T08:21:19;8.93;;;2.08;;
21243;SDS011;10780;50.942;4.028;2023-02-18T08:23:47;7.47;;;2.05;;
21243;SDS011;10780;50.942;4.028;2023-02-18T08:26:13;11.63;;;2.67;;
21243;SDS011;10780;50.942;4.028;2023-02-18T08:28:39;8.40;;;2.33;;
21243;SDS011;10780;50.942;4.028;2023-02-18T08:31:05;9.93;;;1.80;;
21243;SDS011;10780;50.942;4.028;2023-02-18T08:33:31;7.00;;;2.20;;
21243;SDS011;10780;50.942;4.028;2023-02-18T08:35:57;8.32;;;2.72;;
21243;SDS011;10780;50.942;4.028;2023-02-18T08:38:23;5.35;;;1.60;;
21243;SDS011;10780;50.942;4.028;2023-02-18T08:40:49;6.35;;;2.10;;
21243;SDS011;10780;50.942;4.028;2023-02-18T08:43:16;5.25;;;1.85;;
21243;SDS011;10780;50.942;4.028;2023-02-18T08:45:43;7.40;;;1.58;;
21243;SDS011;10780;50.942;4.028;2023-02-18T08:48:09;4.93;;;2.05;;
21243;SDS011;10780;50.942;4.028;2023-02-18T08:50:36;6.25;;;2.03;;
21243;SDS011;10780;50.942;4.028;2023-02-18T08:53:02;9.52;;;2.17;;
21243;SDS011;10780;50.942;4.028;2023-02-18T08:55:29;7.25;;;2.05;;
21243;SDS011;10780;50.942;4.028;2023-02-18T08:57:55;5.53;;;1.55;;
21243;SDS011;10780;50.942;4.028;2023-02-18T09:00:21;7.13;;;1.63;;
21243;SDS011;10780;50.942;4.028;2023-02-18T09:02:46;7.10;;;1.80;;
21243;SDS011;10780;50.942;4.028;2023-02-18T09:05:12;7.93;;;2.50;;
21243;SDS011;10780;50.942;4.028;2023-02-18T09:07:38;7.60;;;2.03;;
21243;SDS011;10780;50.942;4.028;2023-02-18T09:10:04;12.60;;;2.13;;
21243;SDS011;10780;50.942;4.028;2023-02-18T09:12:31;8.63;;;2.60;;
21243;SDS011;10780;50.942;4.028;2023-02-18T09:14:58;5.30;;;1.77;;
21243;SDS011;10780;50.942;4.028;2023-02-18T09:17:24;12.82;;;2.78;;
21243;SDS011;10780;50.942;4.028;2023-02-18T09:19:50;6.88;;;2.10;;
21243;SDS011;10780;50.942;4.028;2023-02-18T09:22:16;3.92;;;1.65;;
21243;SDS011;10780;50.942;4.028;2023-02-18T09:24:42;6.30;;;1.92;;
21243;SDS011;10780;50.942;4.028;2023-02-18T09:27:07;6.38;;;2.20;;
21243;SDS011;10780;50.942;4.028;2023-02-18T09:29:36;5.18;;;2.20;;
21243;SDS011;10780;50.942;4.028;2023-02-18T09:32:03;4.63;;;1.70;;
21243;SDS011;10780;50.942;4.028;2023-02-18T09:34:29;7.45;;;2.10;;
21243;SDS011;10780;50.942;4.028;2023-02-18T09:36:55;5.38;;;1.75;;
21243;SDS011;10780;50.942;4.028;2023-02-18T09:39:21;10.43;;;2.20;;
21243;SDS011;10780;50.942;4.028;2023-02-18T09:42:06;10.68;;;2.15;;
21243;SDS011;10780;50.942;4.028;2023-02-18T09:44:37;7.75;;;2.30;;
21243;SDS011;10780;50.942;4.028;2023-02-18T09:49:53;9.10;;;3.15;;
21243;SDS011;10780;50.942;4.028;2023-02-18T09:52:29;6.72;;;2.10;;
21243;SDS011;10780;50.942;4.028;2023-02-18T09:54:57;8.07;;;2.15;;
21243;SDS011;10780;50.942;4.028;2023-02-18T09:57:27;7.85;;;2.22;;
21243;SDS011;10780;50.942;4.028;2023-02-18T10:00:00;7.05;;;2.30;;
21243;SDS011;10780;50.942;4.028;2023-02-18T10:02:29;6.78;;;1.95;;
21243;SDS011;10780;50.942;4.028;2023-02-18T10:04:55;6.63;;;2.58;;
21243;SDS011;10780;50.942;4.028;2023-02-18T10:07:26;10.15;;;2.20;;
21243;SDS011;10780;50.942;4.028;2023-02-18T10:09:55;8.55;;;2.30;;
21243;SDS011;10780;50.942;4.028;2023-02-18T10:12:24;8.30;;;2.33;;
21243;SDS011;10780;50.942;4.028;2023-02-18T10:14:51;7.80;;;2.08;;
21243;SDS011;10780;50.942;4.028;2023-02-18T10:17:20;9.73;;;2.60;;
21243;SDS011;10780;50.942;4.028;2023-02-18T10:19:47;8.20;;;2.10;;
21243;SDS011;10780;50.942;4.028;2023-02-18T10:22:15;8.10;;;2.92;;
21243;SDS011;10780;50.942;4.028;2023-02-18T10:24:47;8.90;;;2.70;;
21243;SDS011;10780;50.942;4.028;2023-02-18T10:27:29;9.20;;;2.20;;
21243;SDS011;10780;50.942;4.028;2023-02-18T10:32:45;12.15;;;2.63;;
21243;SDS011;10780;50.942;4.028;2023-02-18T10:35:14;10.63;;;2.45;;
21243;SDS011;10780;50.942;4.028;2023-02-18T10:43:29;10.02;;;2.30;;
21243;SDS011;10780;50.942;4.028;2023-02-18T10:51:47;6.93;;;2.33;;
21243;SDS011;10780;50.942;4.028;2023-02-18T10:54:16;9.63;;;2.53;;
21243;SDS011;10780;50.942;4.028;2023-02-18T10:56:47;6.85;;;2.60;;
21243;SDS011;10780;50.942;4.028;2023-02-18T10:59:19;7.85;;;2.47;;
21243;SDS011;10780;50.942;4.028;2023-02-18T11:02:15;8.10;;;2.65;;
21243;SDS011;10780;50.942;4.028;2023-02-18T11:04:43;6.90;;;2.22;;
21243;SDS011;10780;50.942;4.028;2023-02-18T11:07:14;7.40;;;2.63;;
21243;SDS011;10780;50.942;4.028;2023-02-18T11:09:49;5.32;;;2.30;;
21243;SDS011;10780;50.942;4.028;2023-02-18T11:14:44;5.70;;;2.65;;
21243;SDS011;10780;50.942;4.028;2023-02-18T11:17:18;10.25;;;2.78;;
21243;SDS011;10780;50.942;4.028;2023-02-18T11:19:52;7.18;;;2.75;;
21243;SDS011;10780;50.942;4.028;2023-02-18T11:22:30;11.63;;;2.80;;
21243;SDS011;10780;50.942;4.028;2023-02-18T11:25:13;8.93;;;2.88;;
21243;SDS011;10780;50.942;4.028;2023-02-18T11:27:49;9.65;;;2.92;;
21243;SDS011;10780;50.942;4.028;2023-02-18T11:33:06;9.80;;;3.10;;
21243;SDS011;10780;50.942;4.028;2023-02-18T11:35:38;7.95;;;3.10;;
21243;SDS011;10780;50.942;4.028;2023-02-18T11:38:20;7.95;;;2.30;;
21243;SDS011;10780;50.942;4.028;2023-02-18T11:40:56;9.88;;;2.80;;
21243;SDS011;10780;50.942;4.028;2023-02-18T11:43:31;11.63;;;2.85;;
21243;SDS011;10780;50.942;4.028;2023-02-18T11:48:38;8.93;;;2.70;;
21243;SDS011;10780;50.942;4.028;2023-02-18T11:51:05;7.63;;;2.42;;
21243;SDS011;10780;50.942;4.028;2023-02-18T11:53:38;11.52;;;3.10;;
21243;SDS011;10780;50.942;4.028;2023-02-18T11:56:17;7.22;;;2.60;;
21243;SDS011;10780;50.942;4.028;2023-02-18T11:58:44;6.97;;;2.10;;
21243;SDS011;10780;50.942;4.028;2023-02-18T12:01:14;11.90;;;2.55;;
21243;SDS011;10780;50.942;4.028;2023-02-18T12:04:15;6.50;;;2.38;;
21243;SDS011;10780;50.942;4.028;2023-02-18T12:06:54;10.57;;;2.50;;
21243;SDS011;10780;50.942;4.028;2023-02-18T12:09:29;6.97;;;2.53;;
21243;SDS011;10780;50.942;4.028;2023-02-18T12:12:02;6.55;;;2.20;;
21243;SDS011;10780;50.942;4.028;2023-02-18T12:14:33;10.02;;;2.45;;
21243;SDS011;10780;50.942;4.028;2023-02-18T12:23:21;10.85;;;3.28;;
21243;SDS011;10780;50.942;4.028;2023-02-18T12:43:33;5.03;;;2.42;;
21243;SDS011;10780;50.942;4.028;2023-02-18T12:46:32;10.23;;;3.60;;
21243;SDS011;10780;50.942;4.028;2023-02-18T12:49:40;10.90;;;3.33;;
21243;SDS011;10780;50.942;4.028;2023-02-18T13:03:19;6.07;;;3.10;;
21243;SDS011;10780;50.942;4.028;2023-02-18T13:09:13;6.93;;;2.88;;
21243;SDS011;10780;50.942;4.028;2023-02-18T13:15:15;9.65;;;2.95;;
21243;SDS011;10780;50.942;4.028;2023-02-18T13:17:48;9.13;;;3.50;;
21243;SDS011;10780;50.942;4.028;2023-02-18T13:20:23;17.55;;;3.65;;
21243;SDS011;10780;50.942;4.028;2023-02-18T13:23:01;11.73;;;3.30;;
21243;SDS011;10780;50.942;4.028;2023-02-18T13:25:28;11.65;;;3.97;;
21243;SDS011;10780;50.942;4.028;2023-02-18T13:30:44;12.23;;;4.28;;
21243;SDS011;10780;50.942;4.028;2023-02-18T13:33:21;10.55;;;4.07;;
21243;SDS011;10780;50.942;4.028;2023-02-18T13:41:37;12.50;;;4.00;;
21243;SDS011;10780;50.942;4.028;2023-02-18T13:44:47;11.80;;;4.40;;
21243;SDS011;10780;50.942;4.028;2023-02-18T13:46:54;12.07;;;4.95;;
21243;SDS011;10780;50.942;4.028;2023-02-18T13:49:31;9.10;;;4.25;;
21243;SDS011;10780;50.942;4.028;2023-02-18T13:51:58;10.73;;;4.45;;
21243;SDS011;10780;50.942;4.028;2023-02-18T13:57:18;11.48;;;4.78;;
21243;SDS011;10780;50.942;4.028;2023-02-18T13:59:46;10.80;;;4.50;;
21243;SDS011;10780;50.942;4.028;2023-02-18T14:20:26;14.80;;;5.40;;
21243;SDS011;10780;50.942;4.028;2023-02-18T14:22:55;11.32;;;5.10;;
21243;SDS011;10780;50.942;4.028;2023-02-18T14:27:59;10.63;;;5.18;;
21243;SDS011;10780;50.942;4.028;2023-02-18T14:30:49;10.48;;;5.65;;
21243;SDS011;10780;50.942;4.028;2023-02-18T14:33:15;12.02;;;5.13;;
21243;SDS011;10780;50.942;4.028;2023-02-18T14:38:17;10.40;;;5.25;;
21243;SDS011;10780;50.942;4.028;2023-02-18T14:51:35;14.27;;;5.57;;
21243;SDS011;10780;50.942;4.028;2023-02-18T14:54:04;9.95;;;4.97;;
21243;SDS011;10780;50.942;4.028;2023-02-18T14:56:31;14.20;;;5.55;;
21243;SDS011;10780;50.942;4.028;2023-02-18T14:59:02;14.30;;;5.53;;
21243;SDS011;10780;50.942;4.028;2023-02-18T15:01:30;13.07;;;6.20;;
21243;SDS011;10780;50.942;4.028;2023-02-18T15:04:01;11.80;;;6.03;;
21243;SDS011;10780;50.942;4.028;2023-02-18T15:08:59;13.55;;;6.15;;
21243;SDS011;10780;50.942;4.028;2023-02-18T15:11:38;13.23;;;5.65;;
21243;SDS011;10780;50.942;4.028;2023-02-18T15:14:13;18.85;;;6.43;;
21243;SDS011;10780;50.942;4.028;2023-02-18T15:16:42;9.68;;;5.70;;
21243;SDS011;10780;50.942;4.028;2023-02-18T15:19:16;10.18;;;5.47;;
21243;SDS011;10780;50.942;4.028;2023-02-18T15:21:45;10.18;;;5.55;;
21243;SDS011;10780;50.942;4.028;2023-02-18T15:24:29;11.82;;;5.95;;
21243;SDS011;10780;50.942;4.028;2023-02-18T15:27:01;13.30;;;5.65;;
21243;SDS011;10780;50.942;4.028;2023-02-18T15:29:38;10.43;;;4.60;;
21243;SDS011;10780;50.942;4.028;2023-02-18T15:32:17;11.20;;;4.90;;
21243;SDS011;10780;50.942;4.028;2023-02-18T15:34:48;14.85;;;5.70;;
21243;SDS011;10780;50.942;4.028;2023-02-18T15:37:15;12.18;;;5.47;;
21243;SDS011;10780;50.942;4.028;2023-02-18T15:39:41;10.05;;;5.30;;
21243;SDS011;10780;50.942;4.028;2023-02-18T15:42:15;13.27;;;5.65;;
21243;SDS011;10780;50.942;4.028;2023-02-18T15:44:49;12.43;;;5.40;;
21243;SDS011;10780;50.942;4.028;2023-02-18T15:47:19;11.07;;;5.68;;
21243;SDS011;10780;50.942;4.028;2023-02-18T15:49:47;12.10;;;5.82;;
21243;SDS011;10780;50.942;4.028;2023-02-18T15:52:22;7.55;;;5.38;;
21243;SDS011;10780;50.942;4.028;2023-02-18T15:54:53;12.82;;;5.95;;
21243;SDS011;10780;50.942;4.028;2023-02-18T15:57:25;11.27;;;5.28;;
21243;SDS011;10780;50.942;4.028;2023-02-18T15:59:54;14.13;;;5.22;;
21243;SDS011;10780;50.942;4.028;2023-02-18T16:02:36;9.50;;;5.03;;
21243;SDS011;10780;50.942;4.028;2023-02-18T16:05:27;11.52;;;5.10;;
21243;SDS011;10780;50.942;4.028;2023-02-18T16:08:14;8.43;;;4.25;;
21243;SDS011;10780;50.942;4.028;2023-02-18T16:10:48;9.98;;;4.70;;
21243;SDS011;10780;50.942;4.028;2023-02-18T16:13:17;9.68;;;4.53;;
21243;SDS011;10780;50.942;4.028;2023-02-18T16:15:44;11.98;;;4.63;;
21243;SDS011;10780;50.942;4.028;2023-02-18T16:18:25;7.50;;;4.15;;
21243;SDS011;10780;50.942;4.028;2023-02-18T16:20:57;7.70;;;4.63;;
21243;SDS011;10780;50.942;4.028;2023-02-18T16:23:40;7.57;;;4.55;;
21243;SDS011;10780;50.942;4.028;2023-02-18T16:26:09;7.47;;;4.40;;
21243;SDS011;10780;50.942;4.028;2023-02-18T16:28:40;6.85;;;4.70;;
21243;SDS011;10780;50.942;4.028;2023-02-18T16:31:06;7.72;;;4.45;;
21243;SDS011;10780;50.942;4.028;2023-02-18T16:33:32;9.30;;;5.15;;
21243;SDS011;10780;50.942;4.028;2023-02-18T16:35:57;10.63;;;5.30;;
21243;SDS011;10780;50.942;4.028;2023-02-18T16:38:23;9.60;;;5.47;;
21243;SDS011;10780;50.942;4.028;2023-02-18T16:40:49;8.90;;;5.38;;
21243;SDS011;10780;50.942;4.028;2023-02-18T16:43:18;8.27;;;4.68;;
21243;SDS011;10780;50.942;4.028;2023-02-18T16:45:50;9.60;;;4.88;;
21243;SDS011;10780;50.942;4.028;2023-02-18T16:48:31;7.88;;;5.28;;
21243;SDS011;10780;50.942;4.028;2023-02-18T16:51:02;7.95;;;5.20;;
21243;SDS011;10780;50.942;4.028;2023-02-18T16:53:29;8.35;;;4.82;;
21243;SDS011;10780;50.942;4.028;2023-02-18T16:55:55;10.68;;;6.32;;
21243;SDS011;10780;50.942;4.028;2023-02-18T16:58:21;8.98;;;5.70;;
21243;SDS011;10780;50.942;4.028;2023-02-18T17:00:47;6.88;;;5.32;;
21243;SDS011;10780;50.942;4.028;2023-02-18T17:03:15;9.88;;;5.63;;
21243;SDS011;10780;50.942;4.028;2023-02-18T17:05:41;8.43;;;5.80;;
21243;SDS011;10780;50.942;4.028;2023-02-18T17:08:15;9.50;;;6.05;;
21243;SDS011;10780;50.942;4.028;2023-02-18T17:10:43;11.98;;;6.82;;
21243;SDS011;10780;50.942;4.028;2023-02-18T17:13:17;9.85;;;5.90;;
21243;SDS011;10780;50.942;4.028;2023-02-18T17:15:45;9.05;;;5.53;;
21243;SDS011;10780;50.942;4.028;2023-02-18T17:18:13;8.90;;;5.30;;
21243;SDS011;10780;50.942;4.028;2023-02-18T17:20:39;6.97;;;5.15;;
21243;SDS011;10780;50.942;4.028;2023-02-18T17:23:04;11.93;;;5.93;;
21243;SDS011;10780;50.942;4.028;2023-02-18T17:27:58;11.48;;;6.60;;
21243;SDS011;10780;50.942;4.028;2023-02-18T17:30:24;12.45;;;6.13;;
21243;SDS011;10780;50.942;4.028;2023-02-18T17:32:50;12.52;;;6.43;;